Time;durP1;ratioP1;P1;durP2;ratioP2;P2;SDS_P1;SDS_P2;PMS_P1;PMS_P2;Temp;Humidity;BMP_temperature;BMP_pressure;BME280_temperature;BME280_humidity;BME280_pressure;Samples;Min_cycle;Max_cycle;Signal;HPM_P1;HPM_P2
2023/09/04 00:00:53;;;;;;;1.92;1.83;;;21.40;99.90;;;;;;5015555;28;20263;-72
2023/09/04 00:03:20;;;;;;;2.22;2.13;;;21.40;99.90;;;;;;5012034;28;20207;-71
2023/09/04 00:05:48;;;;;;;2.40;2.20;;;21.30;99.90;;;;;;5018820;28;20224;-71
2023/09/04 00:08:15;;;;;;;2.22;2.13;;;21.30;99.90;;;;;;5021822;28;20879;-71
2023/09/04 00:10:42;;;;;;;2.38;2.20;;;21.30;99.90;;;;;;5018288;28;20196;-72
2023/09/04 00:13:09;;;;;;;2.40;2.20;;;21.20;99.90;;;;;;5017949;28;20316;-71
2023/09/04 00:15:41;;;;;;;2.08;1.98;;;21.20;99.90;;;;;;5018048;28;20281;-72
2023/09/04 00:18:09;;;;;;;2.17;2.08;;;21.20;99.90;;;;;;5019361;28;20228;-70
2023/09/04 00:20:36;;;;;;;2.17;2.00;;;21.20;99.90;;;;;;5018977;28;20203;-70
2023/09/04 00:23:03;;;;;;;1.92;1.83;;;21.10;99.90;;;;;;5018466;28;20199;-70
2023/09/04 00:25:30;;;;;;;2.22;2.03;;;21.10;99.90;;;;;;5019373;28;20258;-70
2023/09/04 00:27:57;;;;;;;2.03;1.92;;;21.10;99.90;;;;;;5022376;28;20215;-70
2023/09/04 00:30:25;;;;;;;2.08;1.98;;;21.10;99.90;;;;;;5017748;28;20216;-70
2023/09/04 00:32:53;;;;;;;2.45;2.25;;;21.10;99.90;;;;;;5019552;28;20223;-70
2023/09/04 00:35:20;;;;;;;2.45;2.00;;;21.10;99.90;;;;;;5020959;28;20255;-70
2023/09/04 00:37:48;;;;;;;2.25;2.13;;;21.10;99.90;;;;;;5014728;28;20290;-70
2023/09/04 00:40:15;;;;;;;2.30;2.10;;;21.00;99.90;;;;;;5015668;28;20204;-70
2023/09/04 00:42:42;;;;;;;2.30;2.10;;;21.00;99.90;;;;;;5017678;28;20208;-70
2023/09/04 00:45:11;;;;;;;2.35;1.90;;;21.00;99.90;;;;;;5015252;28;20243;-69
2023/09/04 00:47:40;;;;;;;2.17;2.00;;;21.00;99.90;;;;;;5016473;28;20210;-70
2023/09/04 00:50:12;;;;;;;2.33;2.13;;;21.00;99.90;;;;;;5019417;28;20287;-71
2023/09/04 00:52:39;;;;;;;2.00;1.90;;;20.90;99.90;;;;;;5020512;28;20224;-72
2023/09/04 00:55:08;;;;;;;1.90;1.80;;;20.90;99.90;;;;;;5016507;28;20314;-71
2023/09/04 00:57:35;;;;;;;2.35;2.10;;;20.90;99.90;;;;;;5019741;28;20192;-71
2023/09/04 01:00:07;;;;;;;2.15;1.95;;;20.90;99.90;;;;;;5020893;28;20992;-72
2023/09/04 01:02:36;;;;;;;2.30;2.20;;;20.90;99.90;;;;;;5021409;28;20195;-72
2023/09/04 01:05:03;;;;;;;2.67;2.47;;;20.90;99.90;;;;;;5015868;28;20227;-72
2023/09/04 01:07:32;;;;;;;1.95;1.85;;;20.90;99.90;;;;;;5019590;28;20203;-72
2023/09/04 01:10:00;;;;;;;2.40;2.17;;;20.90;99.90;;;;;;5003019;28;20234;-71
2023/09/04 01:12:36;;;;;;;2.67;2.20;;;20.90;99.90;;;;;;5021260;28;20284;-71
2023/09/04 01:15:05;;;;;;;2.42;2.22;;;20.90;99.90;;;;;;5023256;28;20321;-72
2023/09/04 01:17:32;;;;;;;2.40;2.20;;;20.90;99.90;;;;;;5023072;28;20211;-72
2023/09/04 01:19:59;;;;;;;2.45;2.25;;;20.90;99.90;;;;;;5022241;28;20210;-70
2023/09/04 01:22:29;;;;;;;2.22;2.10;;;20.90;99.90;;;;;;5020380;28;20291;-70
2023/09/04 01:24:56;;;;;;;1.95;1.85;;;20.90;99.90;;;;;;5023981;28;20247;-70
2023/09/04 01:27:28;;;;;;;2.33;2.22;;;20.90;99.90;;;;;;5025576;28;20238;-70
2023/09/04 01:30:07;;;;;;;2.30;2.10;;;20.90;99.90;;;;;;5024907;28;20298;-70
2023/09/04 01:32:40;;;;;;;2.13;2.03;;;20.90;99.90;;;;;;5023889;28;20228;-70
2023/09/04 01:35:11;;;;;;;2.42;1.88;;;20.90;99.90;;;;;;5019768;28;20246;-70
2023/09/04 01:37:41;;;;;;;2.47;2.28;;;20.90;99.90;;;;;;5023914;28;20235;-70
2023/09/04 01:40:09;;;;;;;2.83;2.13;;;20.90;99.90;;;;;;5020981;28;20236;-70
2023/09/04 01:42:37;;;;;;;2.63;2.42;;;20.80;99.90;;;;;;5024357;28;20251;-71
2023/09/04 01:45:05;;;;;;;2.20;2.08;;;20.80;99.90;;;;;;5023383;28;20293;-70
2023/09/04 01:47:32;;;;;;;2.00;1.90;;;20.80;99.90;;;;;;5020984;28;20208;-70
2023/09/04 01:49:59;;;;;;;2.38;2.22;;;20.80;99.90;;;;;;5020384;28;20685;-70
2023/09/04 01:52:26;;;;;;;2.25;2.15;;;20.80;99.90;;;;;;5024247;28;20197;-70
2023/09/04 01:54:55;;;;;;;2.10;1.95;;;20.80;99.90;;;;;;5023801;28;20219;-70
2023/09/04 01:57:22;;;;;;;1.90;1.80;;;20.80;99.90;;;;;;5018036;28;20200;-70
2023/09/04 01:59:49;;;;;;;2.03;1.90;;;20.80;99.90;;;;;;5020296;28;20231;-70
2023/09/04 02:02:15;;;;;;;2.13;1.92;;;20.70;99.90;;;;;;5024330;28;20230;-70
2023/09/04 02:04:42;;;;;;;2.03;1.92;;;20.80;99.90;;;;;;5021981;28;20311;-69
2023/09/04 02:07:10;;;;;;;2.25;2.15;;;20.80;99.90;;;;;;5008320;28;20291;-70
2023/09/04 02:09:37;;;;;;;2.30;2.08;;;20.80;99.90;;;;;;5022394;28;20238;-70
2023/09/04 02:12:06;;;;;;;2.00;1.90;;;20.70;99.90;;;;;;5022738;28;20242;-69
2023/09/04 02:14:33;;;;;;;2.50;2.30;;;20.70;99.90;;;;;;5022736;28;20311;-70
2023/09/04 02:17:00;;;;;;;2.10;1.98;;;20.60;99.90;;;;;;5025445;28;20270;-70
2023/09/04 02:19:27;;;;;;;2.17;1.98;;;20.60;99.90;;;;;;5000559;28;20201;-70
2023/09/04 02:21:54;;;;;;;2.10;1.90;;;20.60;99.90;;;;;;5018734;28;20203;-70
2023/09/04 02:24:21;;;;;;;2.30;2.20;;;20.60;99.90;;;;;;5020406;28;20303;-69
2023/09/04 02:26:48;;;;;;;2.03;1.92;;;20.60;99.90;;;;;;5022319;28;20608;-70
2023/09/04 02:29:16;;;;;;;2.25;2.13;;;20.50;99.90;;;;;;5022909;28;20291;-70
2023/09/04 02:31:43;;;;;;;2.05;1.83;;;20.50;99.90;;;;;;5021272;28;20286;-70
2023/09/04 02:34:12;;;;;;;2.40;2.20;;;20.50;99.90;;;;;;5017141;28;20220;-70
2023/09/04 02:36:39;;;;;;;2.50;2.00;;;20.50;99.90;;;;;;5017263;28;20216;-69
2023/09/04 02:39:07;;;;;;;2.10;1.90;;;20.50;99.90;;;;;;5015617;28;20239;-70
2023/09/04 02:41:34;;;;;;;2.00;1.90;;;20.40;99.90;;;;;;5017852;28;20204;-70
2023/09/04 02:44:01;;;;;;;1.80;1.70;;;20.40;99.90;;;;;;5020657;28;20735;-69
2023/09/04 02:46:32;;;;;;;2.30;2.15;;;20.30;99.90;;;;;;5020092;28;20231;-69
2023/09/04 02:48:59;;;;;;;2.42;2.13;;;20.30;99.90;;;;;;5013730;28;20214;-70
2023/09/04 02:51:26;;;;;;;2.08;1.98;;;20.30;99.90;;;;;;5016260;28;20561;-71
2023/09/04 02:53:53;;;;;;;2.33;2.13;;;20.20;99.90;;;;;;5011650;28;20927;-71
2023/09/04 02:56:20;;;;;;;2.10;1.90;;;20.20;99.90;;;;;;4998487;28;20636;-71
2023/09/04 02:58:47;;;;;;;2.13;1.92;;;20.10;99.90;;;;;;5015725;28;20615;-70
2023/09/04 03:01:16;;;;;;;2.33;2.13;;;20.10;99.90;;;;;;5018793;28;20292;-71
2023/09/04 03:03:46;;;;;;;2.15;1.95;;;20.10;99.90;;;;;;5021608;28;20561;-71
2023/09/04 03:06:13;;;;;;;1.90;1.80;;;20.10;99.90;;;;;;5021431;28;20320;-71
2023/09/04 03:08:40;;;;;;;2.15;2.03;;;20.00;99.90;;;;;;5018226;28;20257;-71
2023/09/04 03:11:10;;;;;;;2.40;2.20;;;20.00;99.90;;;;;;5022245;28;20283;-71
2023/09/04 03:13:37;;;;;;;2.78;2.03;;;20.00;99.90;;;;;;5019133;28;20223;-70
2023/09/04 03:16:05;;;;;;;2.47;2.28;;;20.00;99.90;;;;;;5019099;28;20741;-70
2023/09/04 03:18:32;;;;;;;2.33;2.15;;;20.00;99.90;;;;;;5021129;28;20204;-70
2023/09/04 03:21:01;;;;;;;2.20;2.05;;;20.00;99.90;;;;;;5020130;28;20203;-70
2023/09/04 03:23:28;;;;;;;2.25;2.05;;;19.90;99.90;;;;;;5012153;28;20291;-70
2023/09/04 03:25:57;;;;;;;1.90;1.80;;;19.90;99.90;;;;;;5017977;28;20733;-70
2023/09/04 03:28:24;;;;;;;2.30;2.10;;;19.90;99.90;;;;;;5017525;28;20908;-70
2023/09/04 03:30:51;;;;;;;2.30;2.10;;;19.90;99.90;;;;;;5016561;28;20890;-70
2023/09/04 03:33:18;;;;;;;2.05;1.85;;;19.90;99.90;;;;;;5017466;28;20298;-70
2023/09/04 03:35:45;;;;;;;1.80;1.70;;;19.90;99.90;;;;;;5020499;28;20281;-70
2023/09/04 03:38:13;;;;;;;2.35;2.15;;;19.80;99.90;;;;;;5017210;28;20254;-70
2023/09/04 03:40:40;;;;;;;2.05;1.95;;;19.80;99.90;;;;;;5019466;28;20677;-69
2023/09/04 03:43:07;;;;;;;2.38;2.17;;;19.80;99.90;;;;;;5013984;28;20201;-70
2023/09/04 03:45:35;;;;;;;2.20;2.03;;;19.70;99.90;;;;;;5018107;28;20224;-70
2023/09/04 03:48:03;;;;;;;2.30;2.10;;;19.70;99.90;;;;;;5019905;28;20195;-70
2023/09/04 03:50:30;;;;;;;2.17;1.98;;;19.70;99.90;;;;;;5020495;28;20200;-70
2023/09/04 03:52:57;;;;;;;2.25;2.05;;;19.70;99.90;;;;;;5018974;28;20294;-70
2023/09/04 03:55:25;;;;;;;1.92;1.83;;;19.60;99.90;;;;;;5018583;28;20254;-70
2023/09/04 03:57:52;;;;;;;2.22;2.03;;;19.60;99.90;;;;;;5002302;28;20207;-70
2023/09/04 04:00:20;;;;;;;2.10;1.63;;;19.60;99.90;;;;;;5015014;28;20232;-70
2023/09/04 04:02:49;;;;;;;2.20;2.00;;;19.60;99.90;;;;;;5019346;28;20204;-70
2023/09/04 04:05:17;;;;;;;2.30;2.20;;;19.60;99.90;;;;;;5016425;28;20303;-69
2023/09/04 04:07:44;;;;;;;2.78;2.58;;;19.60;99.90;;;;;;5019948;28;20212;-70
2023/09/04 04:10:11;;;;;;;2.13;1.92;;;19.60;99.90;;;;;;5015274;28;20879;-70
2023/09/04 04:12:40;;;;;;;2.05;1.95;;;19.50;99.90;;;;;;5019696;28;20231;-69
2023/09/04 04:15:08;;;;;;;2.20;2.00;;;19.50;99.90;;;;;;5017533;28;20212;-69
2023/09/04 04:17:35;;;;;;;2.40;2.20;;;19.50;99.90;;;;;;5024742;28;20199;-69
2023/09/04 04:20:07;;;;;;;2.38;2.17;;;19.60;99.90;;;;;;5017717;28;20263;-69
2023/09/04 04:22:34;;;;;;;2.17;2.08;;;19.50;99.90;;;;;;5020121;28;20206;-69
2023/09/04 04:25:01;;;;;;;2.10;2.00;;;19.50;99.90;;;;;;5020502;28;20219;-69
2023/09/04 04:27:28;;;;;;;2.22;2.13;;;19.50;99.90;;;;;;5016941;28;20253;-69
2023/09/04 04:29:56;;;;;;;2.05;1.85;;;19.40;99.90;;;;;;5019289;28;20281;-69
2023/09/04 04:32:23;;;;;;;2.35;2.22;;;19.50;99.90;;;;;;5016754;28;20231;-70
2023/09/04 04:34:50;;;;;;;2.00;1.90;;;19.40;99.90;;;;;;5021159;28;20796;-69
2023/09/04 04:37:17;;;;;;;2.20;2.00;;;19.50;99.90;;;;;;5017703;28;20291;-69
2023/09/04 04:39:44;;;;;;;2.60;2.40;;;19.40;99.90;;;;;;5014579;28;20235;-69
2023/09/04 04:42:11;;;;;;;2.30;2.20;;;19.40;99.90;;;;;;5022387;28;20231;-70
2023/09/04 04:44:38;;;;;;;2.28;2.17;;;19.50;99.90;;;;;;5020685;28;20208;-70
2023/09/04 04:47:07;;;;;;;2.13;2.03;;;19.40;99.90;;;;;;5020225;28;20311;-70
2023/09/04 04:49:35;;;;;;;2.47;2.28;;;19.40;99.90;;;;;;5006432;28;20303;-70
2023/09/04 04:52:02;;;;;;;1.90;1.80;;;19.40;99.90;;;;;;5021985;28;20287;-70
2023/09/04 04:54:29;;;;;;;2.10;2.00;;;19.40;99.90;;;;;;5020128;28;20762;-70
2023/09/04 04:56:55;;;;;;;2.10;1.98;;;19.50;99.90;;;;;;5000834;28;20529;-70
2023/09/04 04:59:23;;;;;;;2.15;2.00;;;19.50;99.90;;;;;;5020933;28;20204;-69
2023/09/04 05:01:49;;;;;;;2.25;2.05;;;19.60;99.90;;;;;;5023697;28;20262;-70
2023/09/04 05:04:18;;;;;;;2.20;2.00;;;19.70;99.90;;;;;;5024740;28;20311;-70
2023/09/04 05:06:46;;;;;;;2.63;2.42;;;19.70;99.90;;;;;;5024192;28;20293;-70
2023/09/04 05:09:13;;;;;;;4.00;2.30;;;19.70;99.90;;;;;;5022837;28;20231;-70
2023/09/04 05:11:40;;;;;;;2.15;2.00;;;19.80;99.90;;;;;;5022615;28;20207;-70
2023/09/04 05:14:07;;;;;;;2.45;2.25;;;19.80;99.90;;;;;;5020719;28;20306;-70
2023/09/04 05:16:34;;;;;;;2.25;2.13;;;19.80;99.90;;;;;;5023518;28;20317;-71
2023/09/04 05:19:01;;;;;;;2.22;2.03;;;19.90;99.90;;;;;;5025551;28;20705;-70
2023/09/04 05:21:29;;;;;;;2.22;1.90;;;20.00;99.90;;;;;;5021525;28;20237;-70
2023/09/04 05:23:56;;;;;;;2.30;2.20;;;20.10;99.90;;;;;;5022883;28;20227;-70
2023/09/04 05:26:23;;;;;;;2.40;2.20;;;20.30;99.90;;;;;;5020721;28;20485;-70
2023/09/04 05:28:50;;;;;;;2.55;2.35;;;20.50;99.90;;;;;;5024065;28;20203;-70
2023/09/04 05:31:17;;;;;;;2.47;2.28;;;20.80;99.90;;;;;;5024976;28;20210;-69
2023/09/04 05:33:44;;;;;;;2.80;2.50;;;21.10;99.90;;;;;;5022458;28;20210;-69
2023/09/04 05:36:11;;;;;;;2.40;2.20;;;21.20;99.90;;;;;;4998942;28;20672;-70
2023/09/04 05:38:40;;;;;;;2.55;2.17;;;21.30;99.90;;;;;;5018092;28;20200;-69
2023/09/04 05:41:07;;;;;;;2.80;2.60;;;21.50;99.90;;;;;;5002580;28;20291;-70
2023/09/04 05:43:34;;;;;;;2.70;2.50;;;21.70;99.90;;;;;;5016489;28;20301;-70
2023/09/04 05:46:01;;;;;;;2.60;2.40;;;21.90;99.90;;;;;;5023202;28;20238;-71
2023/09/04 05:48:28;;;;;;;2.45;2.25;;;21.90;99.90;;;;;;5001145;28;20717;-70
2023/09/04 05:50:55;;;;;;;2.50;2.30;;;21.90;99.90;;;;;;5000902;28;20229;-70
2023/09/04 05:53:24;;;;;;;2.50;2.30;;;21.80;99.90;;;;;;5017734;28;20777;-70
2023/09/04 05:56:06;;;;;;;3.17;2.47;;;21.70;99.90;;;;;;5005467;28;20234;-69
2023/09/04 05:58:34;;;;;;;2.70;2.50;;;21.80;99.90;;;;;;5002163;28;20265;-71
2023/09/04 06:01:01;;;;;;;2.30;2.10;;;21.90;99.90;;;;;;5003027;28;20567;-71
2023/09/04 06:03:28;;;;;;;2.70;2.45;;;22.00;99.90;;;;;;5017405;28;20236;-71
2023/09/04 06:05:55;;;;;;;3.40;2.03;;;22.10;99.90;;;;;;5019843;28;20240;-70
2023/09/04 06:08:22;;;;;;;2.60;2.35;;;22.10;99.90;;;;;;5018814;28;21014;-70
2023/09/04 06:10:49;;;;;;;2.53;2.33;;;22.10;99.90;;;;;;5015743;28;20286;-71
2023/09/04 06:13:18;;;;;;;2.40;2.20;;;22.20;99.90;;;;;;5021628;28;20387;-71
2023/09/04 06:15:45;;;;;;;2.35;2.10;;;22.50;99.90;;;;;;5022417;28;20441;-71
2023/09/04 06:18:13;;;;;;;2.30;2.10;;;22.90;99.90;;;;;;5021201;28;20891;-71
2023/09/04 06:20:40;;;;;;;2.33;2.13;;;23.50;99.90;;;;;;5017545;28;20236;-70
2023/09/04 06:23:07;;;;;;;2.53;2.33;;;23.80;99.90;;;;;;4993927;28;20662;-70
2023/09/04 06:25:39;;;;;;;2.50;2.30;;;24.10;99.90;;;;;;5018734;28;20223;-71
2023/09/04 06:28:07;;;;;;;2.90;2.65;;;24.10;99.90;;;;;;5002706;28;20234;-69
2023/09/04 06:30:35;;;;;;;4.32;2.60;;;24.10;99.90;;;;;;5015681;28;20208;-69
2023/09/04 06:33:02;;;;;;;3.38;2.65;;;24.10;99.90;;;;;;5019036;28;20208;-70
2023/09/04 06:35:31;;;;;;;3.25;2.83;;;24.20;99.90;;;;;;5017651;28;20222;-70
2023/09/04 06:37:58;;;;;;;4.40;2.75;;;24.20;99.90;;;;;;5017216;28;20196;-70
2023/09/04 06:40:26;;;;;;;2.67;2.45;;;24.50;99.90;;;;;;5021389;28;20207;-70
2023/09/04 06:42:53;;;;;;;3.10;2.80;;;24.70;99.90;;;;;;5018623;28;20246;-69
2023/09/04 06:45:20;;;;;;;2.70;2.50;;;24.90;99.90;;;;;;5012622;28;20212;-69
2023/09/04 06:47:49;;;;;;;2.50;2.30;;;25.20;99.90;;;;;;5012023;28;20326;-70
2023/09/04 06:50:17;;;;;;;2.88;2.60;;;25.40;99.90;;;;;;5012461;28;20208;-70
2023/09/04 06:52:44;;;;;;;3.20;2.60;;;25.70;99.90;;;;;;5016259;28;20285;-70
2023/09/04 06:55:11;;;;;;;4.05;2.65;;;25.80;99.90;;;;;;4993656;28;20226;-70
2023/09/04 06:57:38;;;;;;;3.33;2.60;;;25.80;99.90;;;;;;5011324;28;20207;-70
2023/09/04 07:00:11;;;;;;;2.72;2.53;;;25.80;99.90;;;;;;5013433;28;20286;-70
2023/09/04 07:02:39;;;;;;;3.03;2.83;;;25.70;99.90;;;;;;5014658;28;20213;-70
2023/09/04 07:05:08;;;;;;;5.20;2.90;;;25.50;99.90;;;;;;5013654;28;20700;-70
2023/09/04 07:07:37;;;;;;;2.85;2.33;;;25.40;99.90;;;;;;5012602;28;20302;-70
2023/09/04 07:10:05;;;;;;;3.13;2.83;;;25.50;99.90;;;;;;4994686;28;20204;-69
2023/09/04 07:12:35;;;;;;;2.80;2.55;;;25.50;99.90;;;;;;5016292;28;20223;-69
2023/09/04 07:15:02;;;;;;;2.67;2.47;;;25.30;99.90;;;;;;5011417;28;20747;-71
2023/09/04 07:17:29;;;;;;;2.67;2.47;;;25.00;99.90;;;;;;5017283;28;20199;-71
2023/09/04 07:19:56;;;;;;;2.85;2.65;;;25.10;99.90;;;;;;5016635;28;20720;-71
2023/09/04 07:22:25;;;;;;;3.55;2.75;;;25.20;99.90;;;;;;5015062;28;20227;-71
2023/09/04 07:24:52;;;;;;;4.03;2.95;;;25.20;99.90;;;;;;5016423;28;20769;-71
2023/09/04 07:27:19;;;;;;;3.60;2.65;;;25.20;99.90;;;;;;5011844;28;20203;-72
2023/09/04 07:29:46;;;;;;;5.53;2.90;;;25.00;99.90;;;;;;5014246;28;20361;-72
2023/09/04 07:32:13;;;;;;;3.08;2.70;;;24.90;99.90;;;;;;5011130;28;20447;-72
2023/09/04 07:34:40;;;;;;;4.50;2.95;;;24.70;99.90;;;;;;5009473;28;20747;-72
2023/09/04 07:37:07;;;;;;;2.17;2.03;;;24.70;99.90;;;;;;5010711;28;20200;-72
2023/09/04 07:39:36;;;;;;;2.78;2.50;;;24.60;99.90;;;;;;5009857;28;20297;-72
2023/09/04 07:42:05;;;;;;;3.20;2.92;;;24.80;99.90;;;;;;5010952;28;20231;-71
2023/09/04 07:44:32;;;;;;;3.08;2.78;;;24.80;99.90;;;;;;5011496;28;20242;-72
2023/09/04 07:46:59;;;;;;;4.95;2.75;;;24.60;99.90;;;;;;5017610;28;20261;-72
2023/09/04 07:49:26;;;;;;;2.60;2.40;;;24.70;99.90;;;;;;4995198;28;20416;-72
2023/09/04 07:51:53;;;;;;;3.88;2.70;;;24.80;99.90;;;;;;4996382;28;20887;-71
2023/09/04 07:54:21;;;;;;;3.08;2.78;;;24.90;99.90;;;;;;5004194;28;20220;-70
2023/09/04 07:56:49;;;;;;;2.95;2.75;;;24.50;99.90;;;;;;5014953;28;20231;-71
2023/09/04 07:59:17;;;;;;;3.63;3.03;;;24.30;99.90;;;;;;5010013;28;20678;-71
2023/09/04 08:01:46;;;;;;;2.95;2.65;;;24.20;99.90;;;;;;5011252;28;20215;-71
2023/09/04 08:04:14;;;;;;;4.40;3.30;;;24.40;99.90;;;;;;5019502;28;20774;-71
2023/09/04 08:06:41;;;;;;;2.70;2.50;;;24.50;99.90;;;;;;4996676;28;20191;-71
2023/09/04 08:09:08;;;;;;;3.97;2.67;;;24.80;99.90;;;;;;4999844;28;20742;-70
2023/09/04 08:11:35;;;;;;;4.68;2.92;;;25.10;99.90;;;;;;5013228;28;20782;-70
2023/09/04 08:14:04;;;;;;;2.85;2.63;;;25.30;99.90;;;;;;5014818;28;20467;-70
2023/09/04 08:16:31;;;;;;;2.83;2.58;;;25.50;99.90;;;;;;5013176;28;20396;-70
2023/09/04 08:18:58;;;;;;;3.17;2.88;;;25.90;99.90;;;;;;5014996;28;20675;-71
2023/09/04 08:21:25;;;;;;;4.97;2.80;;;26.00;99.90;;;;;;5011421;28;20311;-71
2023/09/04 08:23:52;;;;;;;4.07;3.28;;;26.20;99.90;;;;;;5013336;28;20316;-71
2023/09/04 08:26:20;;;;;;;3.00;2.80;;;26.30;99.90;;;;;;5013312;28;20291;-71
2023/09/04 08:28:47;;;;;;;3.88;2.83;;;26.40;99.90;;;;;;5015905;28;20208;-71
2023/09/04 08:31:15;;;;;;;3.50;3.00;;;26.50;99.90;;;;;;5014150;28;20220;-71
2023/09/04 08:33:42;;;;;;;4.57;2.88;;;26.60;99.90;;;;;;5015967;28;20629;-70
2023/09/04 08:36:09;;;;;;;3.97;2.97;;;26.60;99.90;;;;;;5012888;28;20783;-71
2023/09/04 08:38:36;;;;;;;3.53;2.67;;;26.70;99.90;;;;;;4993163;28;20298;-71
2023/09/04 08:41:08;;;;;;;3.25;2.95;;;26.80;99.90;;;;;;5001354;28;20604;-71
2023/09/04 08:43:37;;;;;;;3.45;2.97;;;27.00;99.90;;;;;;5013318;28;20733;-71
2023/09/04 08:46:07;;;;;;;3.40;2.95;;;27.00;99.90;;;;;;5014225;28;20596;-71
2023/09/04 08:48:40;;;;;;;2.63;2.42;;;27.30;99.90;;;;;;4995015;28;20227;-71
2023/09/04 08:51:08;;;;;;;3.03;2.72;;;27.40;99.90;;;;;;5014137;28;20207;-71
2023/09/04 08:53:36;;;;;;;3.22;2.92;;;27.50;99.90;;;;;;5016666;28;20204;-71
2023/09/04 08:56:04;;;;;;;2.72;2.53;;;27.40;99.90;;;;;;5011759;28;20782;-71
2023/09/04 08:58:31;;;;;;;3.13;2.80;;;27.40;99.90;;;;;;5014132;28;20295;-71
2023/09/04 09:00:59;;;;;;;2.70;2.50;;;27.10;99.90;;;;;;4995608;28;20257;-71
2023/09/04 09:03:27;;;;;;;2.70;2.50;;;27.00;99.90;;;;;;5013402;28;20232;-71
2023/09/04 09:05:56;;;;;;;2.80;2.60;;;27.00;99.90;;;;;;5017589;28;20298;-71
2023/09/04 09:08:24;;;;;;;3.38;2.63;;;27.40;99.90;;;;;;5012265;28;20294;-71
2023/09/04 09:10:52;;;;;;;4.22;2.80;;;27.50;99.90;;;;;;5014631;28;20681;-71
2023/09/04 09:13:20;;;;;;;3.42;2.85;;;27.70;99.90;;;;;;5012653;28;20234;-71
2023/09/04 09:15:47;;;;;;;3.22;2.92;;;27.90;99.90;;;;;;5016046;28;21059;-71
2023/09/04 09:18:35;;;;;;;3.30;3.00;;;28.10;99.90;;;;;;5013759;28;20343;-71
2023/09/04 09:21:21;;;;;;;2.78;2.58;;;28.20;99.90;;;;;;5014349;28;20208;-71
2023/09/04 09:23:49;;;;;;;3.92;2.60;;;28.50;99.90;;;;;;5010798;28;20779;-71
2023/09/04 09:26:16;;;;;;;3.78;3.40;;;28.90;99.90;;;;;;5010571;28;20200;-72
2023/09/04 09:28:45;;;;;;;3.70;2.83;;;28.60;99.90;;;;;;5013005;28;20278;-71
2023/09/04 09:31:13;;;;;;;3.72;3.15;;;28.30;99.90;;;;;;5012675;28;20211;-70
2023/09/04 09:33:41;;;;;;;2.95;2.75;;;28.00;99.90;;;;;;4995595;28;20538;-71
2023/09/04 09:36:14;;;;;;;3.38;3.08;;;28.00;99.90;;;;;;5018926;28;20219;-71
2023/09/04 09:38:45;;;;;;;3.05;2.78;;;28.10;99.90;;;;;;5016228;28;20200;-71
2023/09/04 09:41:13;;;;;;;3.42;3.13;;;27.70;99.90;;;;;;4997743;28;20412;-71
2023/09/04 09:43:41;;;;;;;3.10;2.90;;;27.50;99.90;;;;;;5012839;28;20210;-71
2023/09/04 09:46:09;;;;;;;5.70;3.17;;;27.60;99.90;;;;;;5016353;28;20291;-71
2023/09/04 09:48:37;;;;;;;3.28;2.80;;;27.60;99.90;;;;;;4996583;28;20470;-71
2023/09/04 09:51:07;;;;;;;3.03;2.72;;;27.70;99.90;;;;;;4995778;28;20208;-71
2023/09/04 09:53:49;;;;;;;3.20;2.90;;;27.60;99.90;;;;;;5019299;28;20207;-71
2023/09/04 09:56:18;;;;;;;2.88;2.58;;;27.70;99.90;;;;;;5014351;28;20294;-71
2023/09/04 09:58:46;;;;;;;3.28;2.97;;;27.70;99.90;;;;;;5015396;28;20281;-71
2023/09/04 10:01:14;;;;;;;2.90;2.70;;;28.00;99.90;;;;;;5017768;28;20573;-71
2023/09/04 10:03:43;;;;;;;2.95;2.70;;;28.50;99.90;;;;;;4995333;28;20206;-71
2023/09/04 10:06:15;;;;;;;3.45;2.60;;;28.80;99.90;;;;;;5014203;28;20214;-70
2023/09/04 10:08:44;;;;;;;3.67;2.90;;;28.80;99.90;;;;;;4996768;28;20299;-71
2023/09/04 10:11:16;;;;;;;2.83;2.63;;;28.60;99.90;;;;;;5008644;28;20211;-71
2023/09/04 10:13:51;;;;;;;3.20;2.90;;;28.50;99.90;;;;;;5015192;28;20638;-71
2023/09/04 10:16:28;;;;;;;2.80;2.50;;;28.50;99.90;;;;;;5016189;28;20227;-70
2023/09/04 10:18:59;;;;;;;3.25;2.55;;;28.60;99.90;;;;;;5015621;28;20508;-71
2023/09/04 10:21:30;;;;;;;4.57;2.63;;;28.60;99.90;;;;;;5014892;28;20592;-71
2023/09/04 10:24:03;;;;;;;2.88;2.60;;;28.60;99.90;;;;;;4998348;28;20876;-71
2023/09/04 10:26:43;;;;;;;2.67;2.45;;;28.70;99.90;;;;;;4999705;28;20654;-71
2023/09/04 10:29:16;;;;;;;5.15;2.80;;;28.90;99.90;;;;;;5016606;28;20215;-72
2023/09/04 10:31:44;;;;;;;2.78;2.53;;;28.90;99.90;;;;;;5016060;28;20302;-72
2023/09/04 10:34:12;;;;;;;3.40;2.60;;;28.80;99.90;;;;;;5020085;28;20374;-71
2023/09/04 10:36:40;;;;;;;3.78;2.60;;;28.80;99.90;;;;;;5015427;28;20231;-71
2023/09/04 10:39:08;;;;;;;3.40;3.03;;;28.80;99.90;;;;;;4987220;28;20239;-71
2023/09/04 10:41:37;;;;;;;3.00;2.70;;;28.60;99.90;;;;;;5020537;28;20800;-72
2023/09/04 10:44:04;;;;;;;3.17;2.80;;;28.40;99.90;;;;;;5015902;28;20224;-71
2023/09/04 10:46:32;;;;;;;4.15;3.75;;;28.40;99.90;;;;;;5010220;28;20207;-71
2023/09/04 10:49:00;;;;;;;3.40;3.10;;;28.20;99.90;;;;;;5018651;28;20208;-71
2023/09/04 10:51:32;;;;;;;4.70;3.17;;;28.20;99.90;;;;;;5012837;28;20295;-71
2023/09/04 10:54:01;;;;;;;4.50;3.38;;;28.20;99.90;;;;;;5019992;28;20222;-70
2023/09/04 10:56:28;;;;;;;4.13;3.30;;;28.10;99.90;;;;;;5020193;28;20460;-71
2023/09/04 10:59:04;;;;;;;3.67;3.38;;;27.90;99.90;;;;;;5013819;28;20293;-71
2023/09/04 11:01:36;;;;;;;3.72;3.30;;;28.10;99.90;;;;;;5014358;28;20196;-71
2023/09/04 11:04:04;;;;;;;3.25;3.05;;;28.10;99.90;;;;;;5014102;28;20314;-71
2023/09/04 11:06:34;;;;;;;3.55;3.25;;;28.00;99.90;;;;;;5012437;28;20263;-71
2023/09/04 11:09:03;;;;;;;3.47;3.17;;;28.00;99.90;;;;;;5017855;28;20227;-71
2023/09/04 11:11:31;;;;;;;3.47;3.17;;;27.90;99.90;;;;;;5014060;28;20891;-70
2023/09/04 11:14:00;;;;;;;3.58;3.28;;;28.00;99.90;;;;;;5013720;28;20366;-71
2023/09/04 11:16:33;;;;;;;3.35;2.72;;;28.00;99.90;;;;;;5015571;28;20255;-71
2023/09/04 11:19:06;;;;;;;3.35;3.05;;;28.10;99.90;;;;;;5013192;28;20204;-71
2023/09/04 11:21:34;;;;;;;3.08;2.80;;;28.10;99.90;;;;;;5013918;28;20199;-71
2023/09/04 11:24:04;;;;;;;3.25;2.88;;;28.30;99.90;;;;;;5015633;28;20231;-71
2023/09/04 11:26:32;;;;;;;3.88;3.47;;;28.30;99.90;;;;;;5014391;28;20579;-71
2023/09/04 11:29:00;;;;;;;3.85;3.45;;;28.40;99.90;;;;;;5012216;28;20235;-72
2023/09/04 11:31:31;;;;;;;4.55;3.05;;;28.30;99.90;;;;;;5012747;28;20593;-71
2023/09/04 11:33:59;;;;;;;3.03;2.63;;;28.30;99.90;;;;;;5014480;28;20319;-70
2023/09/04 11:36:27;;;;;;;3.10;2.90;;;28.60;99.90;;;;;;5014015;28;20316;-71
2023/09/04 11:39:05;;;;;;;4.25;3.10;;;28.70;99.90;;;;;;5014943;28;20327;-71
2023/09/04 11:41:33;;;;;;;3.17;2.95;;;28.70;99.90;;;;;;5013463;28;20890;-71
2023/09/04 11:44:00;;;;;;;3.53;2.75;;;28.80;99.90;;;;;;5008726;28;20216;-71
2023/09/04 11:46:29;;;;;;;2.75;2.55;;;28.90;99.90;;;;;;5014131;28;20197;-71
2023/09/04 11:48:57;;;;;;;3.67;3.28;;;29.10;99.90;;;;;;5010983;28;20196;-71
2023/09/04 11:51:24;;;;;;;3.08;2.78;;;29.00;99.90;;;;;;5008267;28;20676;-71
2023/09/04 11:53:51;;;;;;;3.35;3.05;;;29.10;99.90;;;;;;5009449;28;20677;-71
2023/09/04 11:56:18;;;;;;;3.55;3.22;;;29.20;99.90;;;;;;5014666;28;20318;-72
2023/09/04 11:58:45;;;;;;;4.82;2.80;;;29.10;99.90;;;;;;5014216;28;20276;-71
2023/09/04 12:01:12;;;;;;;3.70;2.80;;;29.30;99.90;;;;;;4996821;28;20282;-71
2023/09/04 12:03:41;;;;;;;3.55;2.65;;;29.40;99.90;;;;;;5010161;28;20312;-71
2023/09/04 12:06:10;;;;;;;4.57;3.10;;;29.40;99.90;;;;;;5014635;28;20287;-71
2023/09/04 12:08:37;;;;;;;4.60;3.05;;;29.30;99.90;;;;;;5017388;28;20446;-71
2023/09/04 12:11:04;;;;;;;3.53;3.05;;;29.20;99.90;;;;;;5013108;28;20694;-71
2023/09/04 12:13:31;;;;;;;2.95;2.63;;;29.30;99.90;;;;;;5013359;28;20253;-72
2023/09/04 12:16:08;;;;;;;6.78;3.38;;;29.50;99.90;;;;;;5015500;28;20678;-72
2023/09/04 12:18:36;;;;;;;3.20;2.90;;;29.60;99.90;;;;;;5014219;28;20516;-72
2023/09/04 12:21:10;;;;;;;4.60;3.42;;;29.80;99.90;;;;;;5008175;28;20583;-71
2023/09/04 12:23:43;;;;;;;3.25;2.92;;;30.20;99.90;;;;;;5009930;28;20617;-72
2023/09/04 12:26:11;;;;;;;3.20;2.90;;;30.10;99.90;;;;;;5012822;28;20191;-72
2023/09/04 12:28:38;;;;;;;2.60;2.40;;;30.30;99.90;;;;;;5013210;28;20258;-72
2023/09/04 12:31:08;;;;;;;3.88;2.67;;;30.70;99.90;;;;;;5015167;28;20215;-73
2023/09/04 12:33:39;;;;;;;3.17;2.40;;;31.10;99.90;;;;;;5010855;28;20196;-72
2023/09/04 12:36:09;;;;;;;3.58;2.85;;;31.30;99.90;;;;;;5011868;28;20234;-72
2023/09/04 12:38:37;;;;;;;2.30;2.17;;;31.20;99.90;;;;;;5013770;28;20273;-72
2023/09/04 12:41:05;;;;;;;2.90;2.50;;;31.00;99.90;;;;;;5015756;28;20208;-72
2023/09/04 12:43:32;;;;;;;3.08;2.78;;;30.90;99.90;;;;;;5012588;28;20277;-72
2023/09/04 12:45:59;;;;;;;2.92;2.67;;;30.80;99.90;;;;;;5010344;28;20310;-72
2023/09/04 12:48:26;;;;;;;3.17;2.60;;;30.80;99.90;;;;;;4990465;28;20221;-72
2023/09/04 12:50:53;;;;;;;2.95;2.75;;;30.60;99.90;;;;;;5016596;28;20240;-73
2023/09/04 12:53:22;;;;;;;4.15;2.85;;;30.40;99.90;;;;;;5013982;28;21648;-72